Aeroporto :
LOGIN :

Iscrizione | Disclaimer

   EN    FR    IT 

 










Sommario :    VFR   VFR Marginale   IFR   IFR Intensivo   IFR Molto Intensivo
Visibilità : 
Base nubi : 
>= 8 km
>= 3000ft
5 / 8 km
1000 / 3000 ft
1500m / 5 km
500 / 1000 ft
800 / 1500m
200 / 500 ft
< 800m
< 200 ft
Simboli :   Temporali  Nebbia  Neve Forte  Precipitazioni Forti  Vento > 20 kt
SIGMETs :   Varie  Temporali  Ghiacco  Turbolenza  Onda orograficha  Ceneri Vulcaniche






- Altitudine del aeroporto : 3428 ft
- Codice IATA : ERH


GMFK - Moulay Ali Cherif Int.

ULTIMO METAR :
  • 252100Z VRB02KT 6000 NSC 28/03 Q1023 NOSIG

METARs OBSOLETI :
  • 252000Z 13006KT 7000 NSC 29/02 Q1023 NOSIG
  • 251900Z 12010KT 7000 NSC 31/01 Q1022 NOSIG

TAF TAF GMFK
Valido dal 25 a 18 ore il 27 a 00 ore UTC


251700Z 2518/2624 09009KT 8000 NSC



MetMap, La meteo Aeronautica in un colpo d'occhio ! - Copyright ORBIFLY Dicembre 2007 - Disclaimer

ORBIFLY MET'MAP TEAM :

Programmazione e sviluppo : Alexandra Zaïnal
Concezione : Baudouin d'Aumeries
Aiuto per la programmazione : Marc-Olivier Méhu
Supporto tecnico e logistico : Manuel Goepfert
Aiuto per la traduzione : Arnaldo La Scala

Contatto : metmap@orbifly.com




FONTI E CREDITI :

   NOAA